createdAt,value
2022-10-13T00:01:47.269Z,102037.16
2022-10-13T00:04:13.752Z,102040.66
2022-10-13T00:06:40.270Z,102038.03
2022-10-13T00:09:06.973Z,102032.84
2022-10-13T00:11:33.417Z,102025.91
2022-10-13T00:14:03.165Z,102023.31
2022-10-13T00:16:30.995Z,102020.63
2022-10-13T00:18:57.625Z,102015.41
2022-10-13T00:21:26.033Z,102019.75
2022-10-13T00:23:53.424Z,102021.53
2022-10-13T00:26:21.979Z,102025.84
2022-10-13T00:28:52.536Z,102018.03
2022-10-13T00:31:21.788Z,102018.03
2022-10-13T00:33:49.364Z,102021.47
2022-10-13T00:36:16.154Z,102016.25
2022-10-13T00:38:43.700Z,102008.44
2022-10-13T00:41:10.167Z,102017.16
2022-10-13T00:43:57.242Z,102015.41
2022-10-13T00:46:29.387Z,102019.75
2022-10-13T00:48:57.523Z,102013.66
2022-10-13T00:51:27.638Z,102009.31
2022-10-13T00:53:56.353Z,102008.44
2022-10-13T00:56:25.772Z,102011.94
2022-10-13T00:58:53.217Z,102007.59
2022-10-13T01:01:19.872Z,102010.22
2022-10-13T01:03:46.518Z,102008.38
2022-10-13T01:06:14.214Z,102019.66
2022-10-13T01:08:40.634Z,102013.56
2022-10-13T01:11:25.318Z,102015.28
2022-10-13T01:14:27.197Z,102011.72
2022-10-13T01:17:11.675Z,102014.22
2022-10-13T01:20:07.040Z,102002.00
2022-10-13T01:22:45.337Z,102000.19
2022-10-13T01:25:33.894Z,102004.50
2022-10-13T01:28:12.653Z,102007.03
2022-10-13T01:30:46.393Z,101994.03
2022-10-13T01:33:19.304Z,102007.00
2022-10-13T01:36:14.576Z,102006.13
2022-10-13T01:38:54.500Z,102000.88
2022-10-13T01:41:29.353Z,102002.56
2022-10-13T01:44:08.581Z,102000.81
2022-10-13T01:46:38.585Z,102006.00
2022-10-13T01:49:09.890Z,102002.47
2022-10-13T01:51:37.427Z,102000.72
2022-10-13T01:54:03.919Z,101990.28
2022-10-13T01:56:30.341Z,101992.91
2022-10-13T01:59:00.006Z,101989.41
2022-10-13T02:01:34.510Z,101988.50
2022-10-13T02:04:32.873Z,101989.41
2022-10-13T02:07:18.012Z,101979.75
2022-10-13T02:09:56.519Z,101975.41
2022-10-13T02:12:39.630Z,101958.00
2022-10-13T02:15:11.734Z,101920.69
2022-10-13T02:17:40.022Z,101948.44
2022-10-13T02:20:07.112Z,101950.19
2022-10-13T02:22:38.293Z,101959.75
2022-10-13T02:25:05.397Z,101956.31
2022-10-13T02:27:31.837Z,101962.38
2022-10-13T02:29:58.515Z,101955.38
2022-10-13T02:32:25.209Z,101956.31
2022-10-13T02:34:52.261Z,101954.53
2022-10-13T02:37:18.827Z,101953.66
2022-10-13T02:39:45.269Z,101953.59
2022-10-13T02:42:11.881Z,101949.19
2022-10-13T02:44:40.032Z,101952.56
2022-10-13T02:47:06.463Z,101945.59
2022-10-13T02:49:32.894Z,101949.00
2022-10-13T02:51:59.312Z,101935.13
2022-10-13T02:54:25.743Z,101931.59
2022-10-13T02:56:52.152Z,101919.41
2022-10-13T02:59:18.592Z,101899.44
2022-10-13T03:01:45.173Z,101890.75
2022-10-13T03:04:11.669Z,101894.25
2022-10-13T03:06:38.144Z,101904.66
2022-10-13T03:09:04.660Z,101902.91
2022-10-13T03:11:31.105Z,101918.53
2022-10-13T03:13:57.588Z,101918.53
2022-10-13T03:16:24.108Z,101922.91
2022-10-13T03:18:50.503Z,101918.56
2022-10-13T03:21:17.013Z,101929.00
2022-10-13T03:23:43.498Z,101930.72
2022-10-13T03:26:10.085Z,101930.72
2022-10-13T03:28:36.685Z,101930.66
2022-10-13T03:31:06.208Z,101927.13
2022-10-13T03:33:32.672Z,101925.31
2022-10-13T03:36:04.710Z,101913.13
2022-10-13T03:38:32.628Z,101910.53
2022-10-13T03:41:05.261Z,101900.19
2022-10-13T03:43:31.657Z,101896.66
2022-10-13T03:46:00.102Z,101892.38
2022-10-13T03:48:28.109Z,101894.06
2022-10-13T03:50:54.952Z,101890.59
2022-10-13T03:53:22.105Z,101890.59
2022-10-13T03:55:53.267Z,101887.19
2022-10-13T03:58:20.493Z,101893.25
2022-10-13T04:00:47.552Z,101897.63
2022-10-13T04:03:13.988Z,101888.88
2022-10-13T04:05:40.700Z,101889.75
2022-10-13T04:08:07.261Z,101890.59
2022-10-13T04:10:33.817Z,101882.78
2022-10-13T04:13:00.260Z,101878.41
2022-10-13T04:15:27.288Z,101882.72
2022-10-13T04:17:53.720Z,101890.53
2022-10-13T04:20:20.187Z,101884.44
2022-10-13T04:22:46.602Z,101874.78
2022-10-13T04:25:13.078Z,101853.00
2022-10-13T04:27:39.588Z,101850.34
2022-10-13T04:30:07.080Z,101856.41
2022-10-13T04:32:33.717Z,101854.66
2022-10-13T04:35:00.772Z,101853.81
2022-10-13T04:37:27.247Z,101859.03
2022-10-13T04:39:53.726Z,101856.50
2022-10-13T04:42:20.293Z,101859.03
2022-10-13T04:44:46.880Z,101864.22
2022-10-13T04:47:13.259Z,101863.38
2022-10-13T04:49:39.646Z,101874.66
2022-10-13T04:52:06.092Z,101871.25
2022-10-13T04:54:32.686Z,101879.16
2022-10-13T04:56:59.352Z,101874.00
2022-10-13T04:59:25.778Z,101874.84
2022-10-13T05:01:56.864Z,101883.50
2022-10-13T05:04:32.314Z,101875.69
2022-10-13T05:07:17.432Z,101882.56
2022-10-13T05:09:46.440Z,101872.97
2022-10-13T05:12:19.302Z,101872.91
2022-10-13T05:14:54.753Z,101867.75
2022-10-13T05:17:23.301Z,101873.84
2022-10-13T05:19:55.251Z,101872.91
2022-10-13T05:22:26.211Z,101874.59
2022-10-13T05:24:58.090Z,101878.84
2022-10-13T05:27:24.609Z,101879.69
2022-10-13T05:29:51.071Z,101879.63
2022-10-13T05:32:17.866Z,101879.53
2022-10-13T05:34:44.688Z,101870.78
2022-10-13T05:37:11.259Z,101871.59
2022-10-13T05:39:37.916Z,101867.22
2022-10-13T05:42:04.463Z,101861.03
2022-10-13T05:44:31.464Z,101857.50
2022-10-13T05:46:57.997Z,101854.91
2022-10-13T05:49:24.447Z,101859.16
2022-10-13T05:51:54.978Z,101866.06
2022-10-13T05:54:26.966Z,101868.59
2022-10-13T05:57:31.979Z,101872.00
2022-10-13T06:00:04.003Z,101856.44
2022-10-13T06:02:37.747Z,101859.81
2022-10-13T06:05:08.611Z,101858.88
2022-10-13T06:07:35.274Z,101854.47
2022-10-13T06:10:01.994Z,101852.66
2022-10-13T06:12:28.437Z,101859.56
2022-10-13T06:14:55.280Z,101849.06
2022-10-13T06:17:21.754Z,101835.13
2022-10-13T06:19:48.143Z,101833.34
2022-10-13T06:22:14.648Z,101822.94
2022-10-13T06:24:41.071Z,101821.16
2022-10-13T06:27:07.474Z,101810.72
2022-10-13T06:29:34.022Z,101822.00
2022-10-13T06:32:00.558Z,101836.75
2022-10-13T06:34:27.342Z,101832.41
2022-10-13T06:36:53.774Z,101815.03
2022-10-13T06:39:20.871Z,101815.91
2022-10-13T06:41:47.369Z,101816.66
2022-10-13T06:44:14.112Z,101813.13
2022-10-13T06:46:40.523Z,101825.28
2022-10-13T06:49:10.224Z,101832.28
2022-10-13T06:51:37.013Z,101840.03
2022-10-13T06:54:03.644Z,101843.47
2022-10-13T06:56:30.220Z,101860.75
2022-10-13T06:58:56.705Z,101857.22
2022-10-13T07:01:23.245Z,101864.09
2022-10-13T07:03:50.561Z,101856.97
2022-10-13T07:06:17.478Z,101846.50
2022-10-13T07:08:44.003Z,101843.81
2022-10-13T07:11:16.077Z,101841.13
2022-10-13T07:13:46.424Z,101834.94
2022-10-13T07:16:14.127Z,101839.13
2022-10-13T07:18:40.549Z,101845.06
2022-10-13T07:21:07.101Z,101843.22
2022-10-13T07:23:33.872Z,101844.88
2022-10-13T07:26:01.702Z,101830.00
2022-10-13T07:28:28.755Z,101829.84
2022-10-13T07:30:55.578Z,101830.56
2022-10-13T07:33:22.476Z,101835.59
2022-10-13T07:35:49.037Z,101830.25
2022-10-13T07:38:15.473Z,101825.75
2022-10-13T07:40:42.137Z,101826.38
2022-10-13T07:43:08.559Z,101825.34
2022-10-13T07:45:35.043Z,101827.88
2022-10-13T07:48:01.560Z,101831.22
2022-10-13T07:50:27.982Z,101829.28
2022-10-13T07:52:54.445Z,101828.22
2022-10-13T07:55:20.946Z,101832.41
2022-10-13T07:57:47.354Z,101828.81
2022-10-13T08:00:14.156Z,101826.91
2022-10-13T08:02:41.424Z,101830.22
2022-10-13T08:05:08.197Z,101816.09
2022-10-13T08:07:34.663Z,101831.63
2022-10-13T08:10:01.102Z,101829.72
2022-10-13T08:12:27.540Z,101834.78
2022-10-13T08:14:54.067Z,101826.63
2022-10-13T08:17:20.767Z,101814.91
2022-10-13T08:19:47.501Z,101815.38
2022-10-13T08:22:14.375Z,101817.53
2022-10-13T08:24:40.852Z,101821.41
2022-10-13T08:27:11.717Z,101817.34
2022-10-13T08:29:38.191Z,101820.13
2022-10-13T08:32:04.658Z,101818.84
2022-10-13T08:34:31.091Z,101815.84
2022-10-13T08:36:57.701Z,101809.31
2022-10-13T08:39:24.857Z,101817.00
2022-10-13T08:41:52.402Z,101815.91
2022-10-13T08:45:10.507Z,101809.69
2022-10-13T08:47:37.606Z,101820.75
2022-10-13T08:50:12.358Z,101825.81
2022-10-13T08:53:00.480Z,101814.25
2022-10-13T08:55:29.908Z,101817.56
2022-10-13T08:57:56.742Z,101811.56
2022-10-13T09:00:23.233Z,101809.19
2022-10-13T09:02:50.770Z,101813.56
2022-10-13T09:05:27.529Z,101803.94
2022-10-13T09:07:56.658Z,101801.19
2022-10-13T09:10:23.050Z,101808.72
2022-10-13T09:12:49.515Z,101812.09
2022-10-13T09:15:17.879Z,101805.31
2022-10-13T09:17:44.336Z,101805.31
2022-10-13T09:20:24.230Z,101800.94
2022-10-13T09:23:21.533Z,101809.72
2022-10-13T09:25:51.601Z,101803.69
2022-10-13T09:28:32.476Z,101802.78
2022-10-13T09:31:17.322Z,101800.19
2022-10-13T09:33:44.403Z,101800.25
2022-10-13T09:36:13.496Z,101799.50
2022-10-13T09:38:42.802Z,101797.88
2022-10-13T09:41:09.142Z,101795.25
2022-10-13T09:44:05.714Z,101797.72
2022-10-13T09:46:36.599Z,101802.69
2022-10-13T09:49:43.439Z,101805.69
2022-10-13T09:52:12.858Z,101802.47
2022-10-13T09:54:50.039Z,101803.56
2022-10-13T09:57:20.693Z,101806.50
2022-10-13T10:00:04.452Z,101810.31
2022-10-13T10:02:36.196Z,101801.09
2022-10-13T10:05:23.571Z,101800.66
2022-10-13T10:07:51.288Z,101797.66
2022-10-13T10:10:31.146Z,101797.22
2022-10-13T10:12:57.664Z,101798.75
2022-10-13T10:15:30.225Z,101795.00
2022-10-13T10:18:03.933Z,101793.09
2022-10-13T10:20:50.723Z,101794.69
2022-10-13T10:23:46.365Z,101797.97
2022-10-13T10:26:31.644Z,101794.03
2022-10-13T10:29:07.792Z,101790.28
2022-10-13T10:31:48.746Z,101784.72
2022-10-13T10:34:17.815Z,101788.84
2022-10-13T10:36:56.416Z,101782.31
2022-10-13T10:39:41.213Z,101778.41
2022-10-13T10:42:33.008Z,101778.66
2022-10-13T10:45:04.462Z,101781.47
2022-10-13T10:47:37.647Z,101774.19
2022-10-13T10:50:07.287Z,101771.00
2022-10-13T10:53:01.448Z,101770.75
2022-10-13T10:55:57.521Z,101774.09
2022-10-13T10:58:31.556Z,101769.34
2022-10-13T11:01:16.875Z,101764.84
2022-10-13T11:03:57.091Z,101759.41
2022-10-13T11:06:37.638Z,101760.84
2022-10-13T11:09:05.861Z,101756.13
2022-10-13T11:11:37.822Z,101758.56
2022-10-13T11:14:07.556Z,101757.44
2022-10-13T11:16:39.782Z,101752.78
2022-10-13T11:19:30.453Z,101754.75
2022-10-13T11:21:56.806Z,101749.38
2022-10-13T11:24:41.689Z,101748.03
2022-10-13T11:27:08.034Z,101757.28
2022-10-13T11:29:43.951Z,101752.31
2022-10-13T11:32:36.493Z,101744.06
2022-10-13T11:35:05.807Z,101751.28
2022-10-13T11:38:06.006Z,101751.16
2022-10-13T11:41:04.658Z,101744.25
2022-10-13T11:43:43.468Z,101740.00
2022-10-13T11:46:24.704Z,101740.66
2022-10-13T11:48:58.850Z,101737.66
2022-10-13T11:51:28.399Z,101737.00
2022-10-13T11:54:13.599Z,101739.06
2022-10-13T11:56:49.987Z,101732.56
2022-10-13T11:59:35.061Z,101726.94
2022-10-13T12:02:10.529Z,101728.16
2022-10-13T12:04:41.551Z,101723.25
2022-10-13T12:07:12.927Z,101719.97
2022-10-13T12:09:57.019Z,101720.09
2022-10-13T12:12:24.529Z,101720.09
2022-10-13T12:14:54.196Z,101726.25
2022-10-13T12:17:26.998Z,101721.66
2022-10-13T12:19:56.431Z,101719.63
2022-10-13T12:22:23.536Z,101718.66
2022-10-13T12:25:05.460Z,101715.97
2022-10-13T12:27:42.290Z,101714.19
2022-10-13T12:30:23.101Z,101709.00
2022-10-13T12:32:52.792Z,101717.00
2022-10-13T12:35:21.448Z,101709.97
2022-10-13T12:37:48.632Z,101702.66
2022-10-13T12:40:17.304Z,101702.38
2022-10-13T12:42:44.628Z,101696.13
2022-10-13T12:45:26.307Z,101705.66
2022-10-13T12:47:54.741Z,101700.06
2022-10-13T12:50:29.887Z,101706.50
2022-10-13T12:53:07.968Z,101703.03
2022-10-13T12:55:36.366Z,101702.94
2022-10-13T12:58:03.100Z,101709.97
2022-10-13T13:00:30.827Z,101709.00
2022-10-13T13:03:03.489Z,101707.44
2022-10-13T13:05:31.556Z,101707.50
2022-10-13T13:07:58.288Z,101707.88
2022-10-13T13:10:25.306Z,101711.91
2022-10-13T13:12:53.807Z,101708.69
2022-10-13T13:15:35.533Z,101707.19
2022-10-13T13:18:26.952Z,101707.09
2022-10-13T13:20:54.285Z,101703.53
2022-10-13T13:23:21.021Z,101711.66
2022-10-13T13:25:48.130Z,101706.59
2022-10-13T13:28:15.929Z,101709.44
2022-10-13T13:30:42.529Z,101705.84
2022-10-13T13:33:09.552Z,101700.78
2022-10-13T13:35:37.293Z,101698.94
2022-10-13T13:38:04.582Z,101700.63
2022-10-13T13:40:31.657Z,101690.03
2022-10-13T13:42:58.148Z,101692.41
2022-10-13T13:45:27.474Z,101688.66
2022-10-13T13:47:57.967Z,101686.41
2022-10-13T13:50:32.256Z,101675.47
2022-10-13T13:52:59.222Z,101676.13
2022-10-13T13:55:26.679Z,101679.13
2022-10-13T13:57:53.160Z,101679.72
2022-10-13T14:00:20.063Z,101672.38
2022-10-13T14:02:46.547Z,101677.81
2022-10-13T14:05:13.519Z,101672.84
2022-10-13T14:07:40.389Z,101672.28
2022-10-13T14:10:08.778Z,101663.56
2022-10-13T14:12:35.699Z,101666.66
2022-10-13T14:15:02.360Z,101663.50
2022-10-13T14:17:28.821Z,101660.69
2022-10-13T14:19:55.460Z,101652.44
2022-10-13T14:22:23.011Z,101651.19
2022-10-13T14:24:49.998Z,101650.81
2022-10-13T14:27:16.496Z,101646.03
2022-10-13T14:29:42.967Z,101649.69
2022-10-13T14:32:09.408Z,101645.28
2022-10-13T14:34:35.901Z,101644.06
2022-10-13T14:37:02.471Z,101646.88
2022-10-13T14:39:29.009Z,101635.72
2022-10-13T14:41:55.459Z,101642.66
2022-10-13T14:44:21.906Z,101639.13
2022-10-13T14:46:48.386Z,101628.63
2022-10-13T14:49:14.820Z,101626.81
2022-10-13T14:51:41.278Z,101625.81
2022-10-13T14:54:07.807Z,101631.13
2022-10-13T14:56:35.049Z,101629.53
2022-10-13T14:59:04.409Z,101621.78
2022-10-13T15:01:31.239Z,101635.63
2022-10-13T15:03:57.703Z,101630.47
2022-10-13T15:06:26.010Z,101634.25
2022-10-13T15:08:52.731Z,101634.50
2022-10-13T15:11:21.133Z,101630.38
2022-10-13T15:13:47.696Z,101623.66
2022-10-13T15:16:16.553Z,101626.63
2022-10-13T15:18:43.821Z,101622.34
2022-10-13T15:21:10.339Z,101629.44
2022-10-13T15:23:36.798Z,101623.38
2022-10-13T15:26:04.373Z,101623.53
2022-10-13T15:28:36.972Z,101626.47
2022-10-13T15:31:04.505Z,101624.75
2022-10-13T15:33:31.585Z,101624.31
2022-10-13T15:35:58.239Z,101626.16
2022-10-13T15:38:25.279Z,101625.41
2022-10-13T15:40:51.912Z,101625.41
2022-10-13T15:43:19.104Z,101628.88
2022-10-13T15:46:03.410Z,101617.72
2022-10-13T15:48:30.287Z,101615.84
2022-10-13T15:50:56.676Z,101613.13
2022-10-13T15:53:23.630Z,101616.69
2022-10-13T15:55:50.104Z,101613.13
2022-10-13T15:58:17.115Z,101623.53
2022-10-13T16:00:44.469Z,101616.69
2022-10-13T16:03:18.261Z,101611.44
2022-10-13T16:05:46.339Z,101603.69
2022-10-13T16:08:13.899Z,101608.81
2022-10-13T16:10:41.725Z,101609.00
2022-10-13T16:13:09.258Z,101614.44
2022-10-13T16:15:35.680Z,101611.06
2022-10-13T16:18:02.236Z,101605.91
2022-10-13T16:20:34.285Z,101603.47
2022-10-13T16:23:01.477Z,101594.09
2022-10-13T16:25:29.284Z,101589.88
2022-10-13T16:27:56.040Z,101588.19
2022-10-13T16:30:22.471Z,101588.31
2022-10-13T16:32:49.005Z,101591.94
2022-10-13T16:35:15.479Z,101593.81
2022-10-13T16:37:41.957Z,101584.34
2022-10-13T16:40:08.960Z,101601.00
2022-10-13T16:42:35.370Z,101594.13
2022-10-13T16:45:01.892Z,101602.16
2022-10-13T16:47:28.301Z,101602.38
2022-10-13T16:49:54.759Z,101605.91
2022-10-13T16:52:21.292Z,101606.75
2022-10-13T16:54:47.781Z,101603.28
2022-10-13T16:57:14.213Z,101612.09
2022-10-13T16:59:40.681Z,101606.84
2022-10-13T17:02:10.149Z,101613.97
2022-10-13T17:04:36.586Z,101605.25
2022-10-13T17:07:02.993Z,101611.50
2022-10-13T17:09:29.403Z,101618.72
2022-10-13T17:11:55.841Z,101621.50
2022-10-13T17:14:22.298Z,101631.25
2022-10-13T17:16:48.864Z,101635.56
2022-10-13T17:19:15.262Z,101624.34
2022-10-13T17:21:43.309Z,101631.31
2022-10-13T17:24:09.849Z,101634.06
2022-10-13T17:26:36.665Z,101640.97
2022-10-13T17:29:03.261Z,101641.91
2022-10-13T17:31:30.069Z,101643.69
2022-10-13T17:33:56.454Z,101647.22
2022-10-13T17:36:28.075Z,101645.53
2022-10-13T17:38:56.531Z,101636.84
2022-10-13T17:41:24.147Z,101648.34
2022-10-13T17:43:51.616Z,101640.56
2022-10-13T17:46:42.091Z,101645.88
2022-10-13T17:49:11.274Z,101648.69
2022-10-13T17:51:38.607Z,101653.09
2022-10-13T17:54:05.181Z,101651.31
2022-10-13T17:56:32.263Z,101658.16
2022-10-13T17:59:02.439Z,101656.38
2022-10-13T18:01:32.245Z,101657.47
2022-10-13T18:04:04.553Z,101668.13
2022-10-13T18:06:38.498Z,101670.75
2022-10-13T18:09:07.498Z,101666.63
2022-10-13T18:11:34.257Z,101670.25
2022-10-13T18:14:00.863Z,101668.84
2022-10-13T18:16:27.550Z,101676.09
2022-10-13T18:18:54.320Z,101676.25
2022-10-13T18:21:23.192Z,101677.09
2022-10-13T18:23:49.750Z,101684.97
2022-10-13T18:26:18.383Z,101684.28
2022-10-13T18:28:45.850Z,101680.81
2022-10-13T18:31:15.714Z,101686.34
2022-10-13T18:33:42.705Z,101693.41
2022-10-13T18:36:23.330Z,101687.22
2022-10-13T18:38:50.857Z,101701.28
2022-10-13T18:41:19.281Z,101706.59
2022-10-13T18:43:45.814Z,101709.38
2022-10-13T18:46:12.468Z,101719.59
2022-10-13T18:48:39.199Z,101700.59
2022-10-13T18:51:08.280Z,101710.97
2022-10-13T18:53:39.838Z,101717.41
2022-10-13T18:56:13.368Z,101729.81
2022-10-13T18:58:40.301Z,101723.38
2022-10-13T19:01:09.636Z,101728.69
2022-10-13T19:03:38.616Z,101733.19
2022-10-13T19:06:07.530Z,101736.63
2022-10-13T19:08:34.594Z,101730.63
2022-10-13T19:11:01.334Z,101724.69
2022-10-13T19:13:28.049Z,101717.84
2022-10-13T19:16:02.460Z,101730.03
2022-10-13T19:18:29.137Z,101728.47
2022-10-13T19:20:55.688Z,101722.50
2022-10-13T19:23:22.493Z,101729.34
2022-10-13T19:25:49.266Z,101721.66
2022-10-13T19:28:16.539Z,101724.19
2022-10-13T19:30:43.324Z,101725.19
2022-10-13T19:33:11.688Z,101727.78
2022-10-13T19:35:43.611Z,101721.81
2022-10-13T19:38:10.227Z,101722.91
2022-10-13T19:40:42.146Z,101723.50
2022-10-13T19:43:09.564Z,101721.19
2022-10-13T19:45:36.263Z,101723.38
2022-10-13T19:48:02.664Z,101736.06
2022-10-13T19:50:29.104Z,101737.13
2022-10-13T19:52:55.662Z,101739.91
2022-10-13T19:55:22.060Z,101735.19
2022-10-13T19:57:48.888Z,101732.13
2022-10-13T20:00:15.798Z,101727.88
2022-10-13T20:02:42.195Z,101728.13
2022-10-13T20:05:08.785Z,101739.72
2022-10-13T20:07:35.201Z,101734.72
2022-10-13T20:10:01.613Z,101738.47
2022-10-13T20:12:27.996Z,101742.16
2022-10-13T20:14:54.410Z,101746.59
2022-10-13T20:17:21.184Z,101744.28
2022-10-13T20:19:47.912Z,101750.66
2022-10-13T20:22:14.346Z,101753.47
2022-10-13T20:24:40.761Z,101755.47
2022-10-13T20:27:07.160Z,101756.69
2022-10-13T20:29:33.572Z,101760.31
2022-10-13T20:32:00.146Z,101752.66
2022-10-13T20:34:26.773Z,101757.25
2022-10-13T20:36:53.232Z,101757.38
2022-10-13T20:39:19.629Z,101761.06
2022-10-13T20:41:46.053Z,101764.72
2022-10-13T20:44:12.496Z,101761.44
2022-10-13T20:46:39.068Z,101761.56
2022-10-13T20:49:13.569Z,101770.47
2022-10-13T20:51:41.540Z,101770.66
2022-10-13T20:54:08.492Z,101771.69
2022-10-13T20:56:35.706Z,101770.09
2022-10-13T20:59:03.991Z,101767.66
2022-10-13T21:01:30.786Z,101765.19
2022-10-13T21:03:57.237Z,101777.47
2022-10-13T21:06:25.056Z,101779.38
2022-10-13T21:08:52.137Z,101783.69
2022-10-13T21:11:20.417Z,101778.44
2022-10-13T21:13:47.994Z,101785.34
2022-10-13T21:16:32.512Z,101783.75
2022-10-13T21:18:59.384Z,101785.44
2022-10-13T21:21:28.217Z,101785.66
2022-10-13T21:24:02.437Z,101792.81
2022-10-13T21:26:31.420Z,101799.72
2022-10-13T21:28:58.556Z,101787.50
2022-10-13T21:31:25.670Z,101785.78
2022-10-13T21:33:52.324Z,101780.56
2022-10-13T21:36:24.683Z,101783.31
2022-10-13T21:38:54.189Z,101774.56
2022-10-13T21:41:21.505Z,101774.56
2022-10-13T21:43:48.013Z,101765.81
2022-10-13T21:46:22.398Z,101764.19
2022-10-13T21:48:49.213Z,101759.75
2022-10-13T21:51:30.469Z,101757.97
2022-10-13T21:53:59.657Z,101761.59
2022-10-13T21:56:27.429Z,101763.97
2022-10-13T21:58:54.654Z,101765.75
2022-10-13T22:01:21.968Z,101760.41
2022-10-13T22:03:48.891Z,101757.00
2022-10-13T22:06:18.955Z,101762.22
2022-10-13T22:08:47.697Z,101752.69
2022-10-13T22:11:15.346Z,101758.06
2022-10-13T22:13:41.800Z,101753.00
2022-10-13T22:16:15.824Z,101748.00
2022-10-13T22:18:42.867Z,101755.00
2022-10-13T22:21:14.687Z,101747.97
2022-10-13T22:23:42.002Z,101741.75
2022-10-13T22:26:09.298Z,101744.44
2022-10-13T22:28:37.443Z,101740.19
2022-10-13T22:31:10.452Z,101733.47
2022-10-13T22:33:38.238Z,101730.00
2022-10-13T22:36:26.984Z,101738.69
2022-10-13T22:38:56.821Z,101741.03
2022-10-13T22:41:23.768Z,101735.50
2022-10-13T22:43:55.129Z,101732.88
2022-10-13T22:46:24.465Z,101735.66
2022-10-13T22:48:51.336Z,101740.00
2022-10-13T22:51:20.669Z,101732.16
2022-10-13T22:53:48.181Z,101732.16
2022-10-13T22:56:20.480Z,101727.88
2022-10-13T22:58:51.531Z,101727.25
2022-10-13T23:01:19.074Z,101741.16
2022-10-13T23:03:50.472Z,101732.44
2022-10-13T23:06:18.995Z,101726.22
2022-10-13T23:08:45.650Z,101732.28
2022-10-13T23:11:13.297Z,101720.25
2022-10-13T23:13:39.829Z,101717.53
2022-10-13T23:16:10.339Z,101715.63
2022-10-13T23:18:36.770Z,101720.03
2022-10-13T23:21:07.590Z,101721.00
2022-10-13T23:23:34.123Z,101713.28
2022-10-13T23:26:09.899Z,101711.44
2022-10-13T23:28:36.651Z,101712.31
2022-10-13T23:31:05.084Z,101704.47
2022-10-13T23:33:31.631Z,101705.25
2022-10-13T23:36:00.034Z,101701.75
2022-10-13T23:38:27.911Z,101701.91
2022-10-13T23:40:54.624Z,101693.34
2022-10-13T23:43:21.352Z,101695.03
2022-10-13T23:45:47.939Z,101701.16
2022-10-13T23:48:15.500Z,101699.56
2022-10-13T23:50:42.451Z,101698.81
2022-10-13T23:53:08.838Z,101697.09
2022-10-13T23:55:41.380Z,101710.41
2022-10-13T23:58:07.757Z,101710.66
